createdAt,value
2023-08-24T00:01:36.726Z,2.55
2023-08-24T00:04:05.632Z,2.30
2023-08-24T00:06:33.531Z,2.17
2023-08-24T00:09:02.846Z,2.40
2023-08-24T00:11:31.610Z,2.47
2023-08-24T00:13:59.373Z,3.05
2023-08-24T00:16:27.147Z,3.35
2023-08-24T00:18:54.974Z,3.65
2023-08-24T00:21:24.918Z,3.65
2023-08-24T00:23:53.753Z,3.40
2023-08-24T00:26:23.247Z,3.33
2023-08-24T00:28:50.934Z,3.20
2023-08-24T00:31:19.625Z,3.13
2023-08-24T00:33:51.653Z,3.00
2023-08-24T00:36:20.080Z,2.88
2023-08-24T00:38:51.920Z,3.55
2023-08-24T00:41:20.100Z,3.58
2023-08-24T00:43:51.063Z,3.28
2023-08-24T00:46:19.670Z,3.10
2023-08-24T00:48:49.272Z,2.40
2023-08-24T00:51:17.556Z,2.80
2023-08-24T00:53:45.393Z,3.05
2023-08-24T00:56:13.526Z,2.90
2023-08-24T00:58:41.959Z,2.92
2023-08-24T01:01:11.159Z,2.70
2023-08-24T01:03:38.901Z,2.75
2023-08-24T01:06:08.008Z,2.90
2023-08-24T01:08:36.014Z,2.80
2023-08-24T01:11:10.930Z,2.45
2023-08-24T01:13:48.063Z,2.80
2023-08-24T01:16:22.637Z,2.95
2023-08-24T01:18:51.547Z,2.70
2023-08-24T01:21:19.910Z,2.97
2023-08-24T01:23:56.106Z,2.72
2023-08-24T01:26:25.675Z,3.50
2023-08-24T01:28:54.215Z,3.05
2023-08-24T01:31:22.008Z,3.20
2023-08-24T01:33:49.989Z,3.70
2023-08-24T01:36:18.903Z,2.92
2023-08-24T01:38:51.507Z,3.67
2023-08-24T01:41:23.357Z,3.00
2023-08-24T01:43:55.915Z,3.17
2023-08-24T01:46:26.244Z,2.90
2023-08-24T01:48:55.288Z,2.90
2023-08-24T01:51:25.479Z,3.63
2023-08-24T01:53:54.084Z,4.20
2023-08-24T01:56:22.482Z,3.20
2023-08-24T01:58:51.961Z,3.10
2023-08-24T02:01:19.775Z,3.38
2023-08-24T02:03:47.728Z,3.47
2023-08-24T02:06:15.594Z,4.22
2023-08-24T02:08:45.372Z,3.40
2023-08-24T02:11:13.104Z,3.55
2023-08-24T02:13:41.245Z,4.30
2023-08-24T02:16:10.975Z,3.63
2023-08-24T02:18:38.946Z,4.07
2023-08-24T02:21:11.478Z,4.22
2023-08-24T02:23:39.446Z,3.60
2023-08-24T02:26:07.160Z,3.80
2023-08-24T02:28:35.439Z,4.55
2023-08-24T02:31:04.216Z,3.70
2023-08-24T02:33:35.700Z,4.10
2023-08-24T02:36:03.386Z,3.72
2023-08-24T02:38:31.126Z,3.90
2023-08-24T02:41:05.887Z,4.13
2023-08-24T02:43:34.150Z,3.90
2023-08-24T02:46:04.306Z,4.15
2023-08-24T02:48:32.226Z,3.55
2023-08-24T02:51:02.159Z,3.58
2023-08-24T02:53:29.826Z,3.30
2023-08-24T02:55:58.184Z,3.25
2023-08-24T02:58:26.053Z,3.55
2023-08-24T03:00:53.917Z,4.70
2023-08-24T03:03:21.816Z,4.80
2023-08-24T03:05:56.718Z,4.47
2023-08-24T03:08:26.168Z,4.40
2023-08-24T03:10:54.536Z,4.10
2023-08-24T03:13:22.503Z,4.88
2023-08-24T03:15:50.502Z,5.95
2023-08-24T03:18:18.935Z,6.10
2023-08-24T03:20:47.990Z,5.53
2023-08-24T03:23:16.739Z,4.10
2023-08-24T03:25:46.089Z,3.85
2023-08-24T03:28:15.347Z,4.68
2023-08-24T03:30:49.222Z,3.80
2023-08-24T03:33:18.222Z,3.90
2023-08-24T03:35:46.123Z,3.95
2023-08-24T03:38:13.884Z,4.68
2023-08-24T03:40:41.919Z,4.05
2023-08-24T03:43:11.151Z,4.15
2023-08-24T03:45:39.081Z,5.07
2023-08-24T03:48:07.445Z,5.82
2023-08-24T03:50:35.306Z,4.60
2023-08-24T03:53:03.388Z,4.22
2023-08-24T03:55:31.205Z,3.72
2023-08-24T03:57:59.270Z,4.20
2023-08-24T04:00:29.182Z,4.72
2023-08-24T04:02:57.035Z,5.50
2023-08-24T04:05:27.257Z,5.28
2023-08-24T04:07:54.990Z,5.18
2023-08-24T04:10:22.908Z,5.10
2023-08-24T04:12:50.655Z,4.75
2023-08-24T04:15:18.538Z,4.40
2023-08-24T04:17:47.737Z,4.75
2023-08-24T04:20:15.639Z,4.45
2023-08-24T04:22:43.523Z,5.15
2023-08-24T04:25:11.286Z,5.07
2023-08-24T04:27:39.370Z,4.72
2023-08-24T04:30:12.627Z,4.70
2023-08-24T04:32:40.808Z,4.38
2023-08-24T04:35:11.258Z,4.93
2023-08-24T04:37:39.494Z,4.82
2023-08-24T04:40:09.265Z,4.82
2023-08-24T04:42:37.090Z,5.03
2023-08-24T04:45:05.211Z,5.40
2023-08-24T04:47:32.917Z,5.10
2023-08-24T04:50:00.811Z,5.60
2023-08-24T04:52:29.854Z,5.05
2023-08-24T04:54:57.631Z,4.43
2023-08-24T04:57:25.828Z,5.07
2023-08-24T04:59:53.592Z,4.70
2023-08-24T05:02:21.307Z,4.82
2023-08-24T05:04:49.839Z,5.03
2023-08-24T05:07:18.592Z,5.03
2023-08-24T05:09:47.781Z,5.00
2023-08-24T05:12:15.473Z,5.40
2023-08-24T05:14:43.150Z,4.82
2023-08-24T05:17:10.881Z,4.97
2023-08-24T05:19:38.567Z,5.35
2023-08-24T05:22:06.294Z,5.28
2023-08-24T05:24:34.106Z,5.05
2023-08-24T05:27:03.155Z,5.50
2023-08-24T05:29:30.847Z,5.82
2023-08-24T05:31:58.588Z,5.35
2023-08-24T05:34:26.259Z,5.25
2023-08-24T05:36:53.951Z,5.68
2023-08-24T05:39:21.838Z,5.97
2023-08-24T05:41:52.911Z,5.95
2023-08-24T05:44:22.404Z,6.13
2023-08-24T05:46:50.258Z,6.22
2023-08-24T05:49:17.981Z,7.10
2023-08-24T05:51:45.836Z,5.65
2023-08-24T05:54:14.472Z,5.90
2023-08-24T05:56:42.158Z,5.38
2023-08-24T05:59:09.971Z,6.07
2023-08-24T06:01:40.089Z,6.38
2023-08-24T06:04:08.016Z,6.90
2023-08-24T06:06:35.824Z,5.63
2023-08-24T06:09:06.335Z,5.70
2023-08-24T06:11:35.786Z,5.60
2023-08-24T06:14:03.614Z,5.65
2023-08-24T06:16:31.663Z,5.70
2023-08-24T06:19:01.031Z,5.72
2023-08-24T06:21:28.900Z,5.95
2023-08-24T06:23:56.574Z,5.07
2023-08-24T06:26:24.324Z,5.40
2023-08-24T06:28:51.979Z,4.95
2023-08-24T06:31:19.663Z,5.20
2023-08-24T06:33:47.693Z,6.22
2023-08-24T06:36:16.733Z,5.72
2023-08-24T06:38:44.416Z,5.60
2023-08-24T06:41:13.520Z,6.45
2023-08-24T06:43:41.563Z,6.30
2023-08-24T06:46:10.058Z,6.10
2023-08-24T06:48:38.273Z,6.35
2023-08-24T06:51:06.463Z,5.50
2023-08-24T06:53:35.578Z,6.60
2023-08-24T06:56:04.990Z,6.68
2023-08-24T06:58:32.935Z,5.25
2023-08-24T07:01:00.689Z,6.55
2023-08-24T07:03:28.477Z,6.72
2023-08-24T07:05:56.258Z,6.30
2023-08-24T07:08:23.948Z,7.03
2023-08-24T07:10:55.452Z,7.18
2023-08-24T07:13:23.496Z,7.55
2023-08-24T07:15:52.059Z,7.25
2023-08-24T07:18:19.838Z,7.00
2023-08-24T07:20:50.834Z,7.63
2023-08-24T07:23:18.578Z,6.93
2023-08-24T07:25:46.226Z,6.53
2023-08-24T07:28:15.617Z,6.57
2023-08-24T07:30:43.329Z,8.23
2023-08-24T07:33:11.055Z,7.60
2023-08-24T07:35:38.783Z,7.93
2023-08-24T07:38:06.610Z,7.72
2023-08-24T07:40:34.340Z,9.25
2023-08-24T07:43:01.990Z,7.63
2023-08-24T07:45:31.081Z,7.72
2023-08-24T07:47:58.986Z,10.32
2023-08-24T07:50:26.673Z,10.35
2023-08-24T07:52:57.421Z,9.90
2023-08-24T07:55:26.004Z,9.82
2023-08-24T07:57:54.044Z,11.82
2023-08-24T08:00:22.145Z,10.52
2023-08-24T08:02:54.207Z,9.20
2023-08-24T08:05:30.614Z,8.02
2023-08-24T08:07:58.385Z,10.10
2023-08-24T08:10:26.374Z,10.32
2023-08-24T08:12:54.153Z,11.18
2023-08-24T08:15:22.106Z,10.85
2023-08-24T08:17:50.909Z,10.57
2023-08-24T08:20:20.330Z,10.38
2023-08-24T08:22:48.269Z,11.88
2023-08-24T08:25:18.786Z,9.18
2023-08-24T08:27:46.829Z,8.38
2023-08-24T08:30:14.973Z,8.70
2023-08-24T08:32:42.811Z,8.43
2023-08-24T08:35:11.417Z,6.68
2023-08-24T08:37:40.458Z,7.13
2023-08-24T08:40:12.568Z,6.90
2023-08-24T08:42:40.900Z,10.02
2023-08-24T08:45:11.589Z,8.40
2023-08-24T08:47:39.716Z,7.63
2023-08-24T08:50:10.203Z,7.93
2023-08-24T08:52:38.060Z,10.00
2023-08-24T08:55:11.314Z,8.63
2023-08-24T08:57:41.017Z,7.45
2023-08-24T09:00:11.233Z,8.68
2023-08-24T09:02:39.495Z,7.63
2023-08-24T09:05:08.038Z,6.82
2023-08-24T09:07:36.693Z,6.50
2023-08-24T09:10:08.646Z,6.45
2023-08-24T09:12:37.112Z,7.10
2023-08-24T09:15:07.227Z,8.23
2023-08-24T09:17:36.529Z,7.85
2023-08-24T09:20:10.878Z,7.18
2023-08-24T09:22:40.751Z,8.65
2023-08-24T09:25:11.478Z,8.90
2023-08-24T09:27:39.255Z,9.25
2023-08-24T09:30:08.397Z,8.32
2023-08-24T09:32:36.181Z,9.77
2023-08-24T09:35:06.754Z,8.13
2023-08-24T09:37:36.443Z,8.98
2023-08-24T09:40:08.772Z,9.13
2023-08-24T09:42:42.797Z,8.68
2023-08-24T09:45:14.226Z,7.85
2023-08-24T09:47:47.395Z,8.70
2023-08-24T09:50:15.265Z,7.05
2023-08-24T09:52:44.473Z,6.68
2023-08-24T09:55:14.105Z,7.50
2023-08-24T09:57:44.238Z,6.68
2023-08-24T10:00:15.361Z,7.95
2023-08-24T10:02:51.446Z,6.50
2023-08-24T10:07:55.375Z,7.68
2023-08-24T10:10:25.923Z,6.50
2023-08-24T10:13:01.606Z,6.35
2023-08-24T10:15:29.774Z,8.07
2023-08-24T10:17:58.500Z,7.90
2023-08-24T10:20:27.123Z,7.43
2023-08-24T10:22:56.877Z,6.63
2023-08-24T10:25:25.781Z,6.80
2023-08-24T10:27:55.536Z,6.53
2023-08-24T10:30:23.503Z,8.20
2023-08-24T10:32:54.749Z,6.15
2023-08-24T10:35:24.357Z,6.40
2023-08-24T10:37:55.135Z,5.50
2023-08-24T10:40:33.728Z,6.93
2023-08-24T10:43:06.386Z,6.97
2023-08-24T10:45:58.846Z,6.15
2023-08-24T10:48:27.692Z,5.18
2023-08-24T10:51:21.724Z,5.47
2023-08-24T10:53:53.289Z,5.57
2023-08-24T10:56:21.696Z,5.47
2023-08-24T10:59:15.175Z,5.50
2023-08-24T11:01:44.155Z,4.50
2023-08-24T11:04:14.031Z,5.20
2023-08-24T11:06:56.101Z,5.10
2023-08-24T11:09:25.382Z,4.70
2023-08-24T11:12:00.729Z,4.55
2023-08-24T11:14:31.330Z,4.68
2023-08-24T11:17:01.165Z,4.50
2023-08-24T11:19:29.214Z,4.40
2023-08-24T11:21:56.986Z,4.47
2023-08-24T11:24:25.005Z,4.20
2023-08-24T11:26:53.515Z,4.65
2023-08-24T11:29:21.547Z,4.53
2023-08-24T11:31:50.635Z,4.07
2023-08-24T11:34:18.417Z,4.47
2023-08-24T11:36:48.462Z,4.03
2023-08-24T11:39:21.170Z,4.25
2023-08-24T11:41:59.698Z,3.92
2023-08-24T11:44:29.337Z,3.70
2023-08-24T11:47:00.744Z,3.78
2023-08-24T11:49:30.377Z,3.75
2023-08-24T11:51:59.336Z,4.40
2023-08-24T11:54:27.363Z,4.05
2023-08-24T11:56:55.405Z,3.47
2023-08-24T11:59:23.423Z,3.97
2023-08-24T12:01:51.735Z,3.63
2023-08-24T12:04:21.130Z,3.85
2023-08-24T12:06:48.878Z,3.38
2023-08-24T12:09:17.293Z,3.50
2023-08-24T12:11:45.000Z,3.47
2023-08-24T12:14:19.454Z,3.70
2023-08-24T12:16:47.266Z,4.47
2023-08-24T12:19:14.922Z,3.83
2023-08-24T12:21:47.549Z,3.85
2023-08-24T12:24:16.111Z,3.47
2023-08-24T12:26:43.772Z,3.70
2023-08-24T12:29:11.493Z,3.85
2023-08-24T12:31:44.436Z,3.97
2023-08-24T12:34:12.554Z,3.65
2023-08-24T12:36:42.369Z,3.20
2023-08-24T12:39:14.732Z,3.20
2023-08-24T12:41:42.642Z,3.35
2023-08-24T12:44:12.728Z,3.13
2023-08-24T12:46:42.416Z,3.10
2023-08-24T12:49:10.309Z,3.50
2023-08-24T12:51:38.472Z,3.80
2023-08-24T12:54:07.165Z,3.00
2023-08-24T12:56:37.914Z,3.60
2023-08-24T12:59:05.891Z,3.40
2023-08-24T13:01:33.924Z,3.45
2023-08-24T13:04:01.640Z,3.60
2023-08-24T13:06:29.294Z,3.35
2023-08-24T13:08:57.071Z,3.47
2023-08-24T13:11:25.456Z,2.97
2023-08-24T13:13:54.541Z,2.78
2023-08-24T13:16:22.243Z,3.33
2023-08-24T13:18:49.945Z,3.33
2023-08-24T13:21:18.742Z,2.70
2023-08-24T13:23:46.658Z,3.70
2023-08-24T13:26:20.849Z,3.08
2023-08-24T13:28:48.820Z,3.30
2023-08-24T13:31:18.201Z,3.10
2023-08-24T13:33:46.723Z,3.17
2023-08-24T13:36:14.585Z,2.90
2023-08-24T13:38:42.357Z,2.92
2023-08-24T13:41:10.006Z,3.28
2023-08-24T13:43:37.738Z,2.85
2023-08-24T13:46:05.523Z,3.30
2023-08-24T13:48:35.605Z,3.30
2023-08-24T13:51:03.388Z,2.70
2023-08-24T13:53:31.108Z,2.80
2023-08-24T13:55:58.773Z,2.65
2023-08-24T13:58:26.530Z,3.17
2023-08-24T14:00:57.519Z,3.45
2023-08-24T14:03:25.749Z,3.50
2023-08-24T14:05:58.639Z,2.70
2023-08-24T14:08:26.960Z,3.05
2023-08-24T14:10:55.016Z,2.58
2023-08-24T14:13:22.857Z,2.42
2023-08-24T14:15:51.484Z,3.25
2023-08-24T14:18:19.677Z,2.70
2023-08-24T14:20:47.562Z,2.80
2023-08-24T14:23:16.654Z,2.90
2023-08-24T14:25:44.664Z,2.53
2023-08-24T14:28:12.702Z,2.67
2023-08-24T14:30:41.253Z,2.75
2023-08-24T14:33:08.984Z,2.50
2023-08-24T14:35:36.715Z,2.63
2023-08-24T14:38:04.884Z,2.40
2023-08-24T14:40:34.007Z,2.42
2023-08-24T14:43:01.715Z,2.70
2023-08-24T14:45:29.370Z,2.55
2023-08-24T14:47:57.447Z,2.75
2023-08-24T14:50:25.494Z,3.00
2023-08-24T14:52:53.187Z,3.20
2023-08-24T14:55:20.866Z,3.03
2023-08-24T14:57:54.054Z,3.10
2023-08-24T15:00:22.205Z,3.10
2023-08-24T15:02:50.040Z,3.00
2023-08-24T15:05:19.610Z,2.72
2023-08-24T15:07:48.605Z,2.65
2023-08-24T15:10:17.077Z,2.60
2023-08-24T15:12:45.021Z,2.78
2023-08-24T15:15:17.832Z,2.70
2023-08-24T15:17:46.561Z,2.92
2023-08-24T15:20:14.875Z,2.95
2023-08-24T15:22:42.545Z,3.45
2023-08-24T15:25:10.641Z,3.00
2023-08-24T15:27:38.775Z,3.03
2023-08-24T15:30:08.869Z,3.30
2023-08-24T15:32:37.994Z,3.20
2023-08-24T15:35:06.653Z,3.00
2023-08-24T15:37:34.365Z,3.08
2023-08-24T15:40:04.746Z,2.92
2023-08-24T15:42:32.504Z,3.20
2023-08-24T15:45:00.419Z,2.85
2023-08-24T15:47:28.246Z,3.50
2023-08-24T15:49:57.328Z,3.08
2023-08-24T15:52:25.280Z,3.17
2023-08-24T15:54:53.417Z,3.15
2023-08-24T15:57:21.237Z,3.35
2023-08-24T15:59:49.101Z,3.33
2023-08-24T16:02:16.864Z,5.80
2023-08-24T16:04:44.575Z,3.80
2023-08-24T16:07:14.556Z,3.45
2023-08-24T16:09:42.278Z,3.53
2023-08-24T16:12:10.098Z,3.30
2023-08-24T16:14:38.100Z,3.10
2023-08-24T16:17:06.028Z,3.40
2023-08-24T16:19:33.900Z,3.03
2023-08-24T16:22:01.684Z,3.10
2023-08-24T16:24:30.835Z,3.20
2023-08-24T16:26:58.698Z,5.10
2023-08-24T16:29:28.041Z,9.32
2023-08-24T16:31:55.891Z,8.30
2023-08-24T16:34:24.197Z,7.75
2023-08-24T16:36:51.975Z,19.00
2023-08-24T16:39:19.725Z,20.38
2023-08-24T16:41:49.062Z,11.35
2023-08-24T16:44:16.840Z,6.82
2023-08-24T16:46:44.583Z,17.35
2023-08-24T16:49:12.322Z,25.70
2023-08-24T16:51:39.981Z,27.20
2023-08-24T16:54:07.920Z,21.48
2023-08-24T16:56:35.836Z,13.85
2023-08-24T16:59:04.933Z,10.93
2023-08-24T17:01:32.897Z,8.63
2023-08-24T17:04:00.736Z,11.75
2023-08-24T17:06:30.106Z,17.95
2023-08-24T17:08:58.913Z,31.17
2023-08-24T17:11:26.557Z,39.05
2023-08-24T17:13:55.004Z,40.65
2023-08-24T17:16:24.211Z,34.65
2023-08-24T17:18:52.021Z,39.97
2023-08-24T17:21:19.825Z,31.70
2023-08-24T17:23:47.577Z,26.35
2023-08-24T17:26:15.387Z,23.90
2023-08-24T17:28:43.411Z,13.25
2023-08-24T17:31:11.548Z,11.85
2023-08-24T17:33:43.451Z,13.80
2023-08-24T17:36:11.216Z,9.80
2023-08-24T17:38:38.958Z,6.43
2023-08-24T17:41:08.598Z,5.30
2023-08-24T17:43:38.474Z,8.63
2023-08-24T17:46:06.475Z,5.28
2023-08-24T17:48:34.992Z,4.93
2023-08-24T17:51:06.768Z,4.65
2023-08-24T17:53:35.655Z,3.67
2023-08-24T17:56:04.434Z,4.18
2023-08-24T17:58:32.268Z,5.60
2023-08-24T18:01:00.147Z,3.78
2023-08-24T18:03:27.958Z,3.42
2023-08-24T18:05:57.230Z,3.47
2023-08-24T18:08:31.769Z,3.08
2023-08-24T18:11:07.047Z,3.67
2023-08-24T18:13:34.941Z,3.60
2023-08-24T18:16:03.502Z,3.67
2023-08-24T18:18:33.123Z,3.40
2023-08-24T18:21:04.277Z,3.65
2023-08-24T18:23:33.327Z,3.90
2023-08-24T18:26:01.171Z,3.80
2023-08-24T18:28:28.905Z,3.13
2023-08-24T18:30:58.990Z,3.05
2023-08-24T18:33:26.977Z,3.13
2023-08-24T18:35:55.326Z,3.25
2023-08-24T18:38:23.879Z,4.63
2023-08-24T18:40:55.011Z,3.65
2023-08-24T18:43:23.111Z,3.95
2023-08-24T18:46:01.464Z,4.07
2023-08-24T18:48:29.168Z,4.50
2023-08-24T18:50:56.889Z,3.65
2023-08-24T18:53:24.988Z,3.50
2023-08-24T18:55:56.584Z,3.20
2023-08-24T18:58:24.633Z,3.25
2023-08-24T19:00:54.654Z,3.00
2023-08-24T19:03:22.448Z,2.90
2023-08-24T19:05:50.154Z,3.33
2023-08-24T19:08:18.718Z,3.20
2023-08-24T19:10:46.657Z,3.88
2023-08-24T19:13:15.781Z,3.70
2023-08-24T19:15:43.805Z,3.92
2023-08-24T19:18:12.362Z,3.38
2023-08-24T19:20:42.873Z,4.20
2023-08-24T19:23:11.357Z,3.40
2023-08-24T19:25:39.459Z,3.25
2023-08-24T19:28:07.682Z,4.03
2023-08-24T19:30:39.206Z,3.53
2023-08-24T19:33:07.346Z,3.60
2023-08-24T19:35:35.449Z,3.30
2023-08-24T19:38:03.151Z,4.10
2023-08-24T19:40:30.817Z,3.38
2023-08-24T19:42:58.504Z,3.92
2023-08-24T19:45:26.308Z,3.20
2023-08-24T19:47:56.026Z,3.20
2023-08-24T19:50:23.997Z,3.10
2023-08-24T19:52:52.101Z,3.42
2023-08-24T19:55:19.946Z,3.40
2023-08-24T19:57:47.863Z,2.90
2023-08-24T20:00:17.289Z,2.92
2023-08-24T20:02:45.227Z,2.92
2023-08-24T20:05:14.572Z,3.15
2023-08-24T20:07:48.525Z,2.78
2023-08-24T20:10:19.160Z,3.00
2023-08-24T20:12:48.417Z,2.75
2023-08-24T20:15:16.131Z,2.83
2023-08-24T20:17:45.479Z,3.00
2023-08-24T20:20:18.225Z,2.72
2023-08-24T20:22:47.317Z,2.58
2023-08-24T20:25:15.524Z,2.80
2023-08-24T20:27:43.324Z,3.20
2023-08-24T20:30:12.044Z,3.00
2023-08-24T20:32:39.876Z,3.03
2023-08-24T20:35:08.342Z,3.40
2023-08-24T20:37:37.486Z,2.85
2023-08-24T20:40:05.806Z,3.05
2023-08-24T20:42:33.498Z,3.20
2023-08-24T20:45:01.450Z,2.97
2023-08-24T20:47:29.192Z,2.78
2023-08-24T20:49:57.151Z,3.00
2023-08-24T20:52:25.144Z,3.03
2023-08-24T20:54:54.496Z,2.63
2023-08-24T20:57:23.504Z,3.10
2023-08-24T20:59:51.302Z,2.45
2023-08-24T21:02:19.110Z,2.80
2023-08-24T21:04:47.920Z,3.33
2023-08-24T21:07:15.611Z,3.00
2023-08-24T21:09:43.394Z,3.55
2023-08-24T21:12:12.530Z,3.22
2023-08-24T21:14:40.216Z,3.45
2023-08-24T21:17:07.902Z,3.53
2023-08-24T21:19:35.642Z,3.33
2023-08-24T21:22:03.354Z,3.17
2023-08-24T21:24:31.039Z,2.85
2023-08-24T21:26:59.195Z,3.25
2023-08-24T21:29:28.466Z,3.45
2023-08-24T21:31:56.267Z,2.83
2023-08-24T21:34:24.061Z,2.97
2023-08-24T21:36:51.898Z,2.83
2023-08-24T21:39:20.213Z,3.20
2023-08-24T21:41:49.001Z,2.97
2023-08-24T21:44:16.656Z,3.63
2023-08-24T21:46:45.756Z,3.90
2023-08-24T21:49:13.417Z,3.05
2023-08-24T21:51:41.173Z,3.08
2023-08-24T21:54:09.012Z,3.33
2023-08-24T21:56:36.704Z,3.08
2023-08-24T21:59:04.487Z,2.70
2023-08-24T22:01:32.884Z,3.10
2023-08-24T22:04:01.992Z,3.03
2023-08-24T22:06:29.752Z,3.20
2023-08-24T22:08:57.418Z,3.13
2023-08-24T22:11:25.264Z,3.33
2023-08-24T22:13:52.961Z,3.40
2023-08-24T22:16:20.739Z,3.35
2023-08-24T22:18:48.498Z,3.80
2023-08-24T22:21:17.546Z,4.40
2023-08-24T22:23:45.227Z,4.30
2023-08-24T22:26:12.948Z,3.75
2023-08-24T22:28:40.767Z,4.03
2023-08-24T22:31:08.722Z,4.10
2023-08-24T22:33:38.769Z,3.70
2023-08-24T22:36:07.521Z,3.60
2023-08-24T22:38:36.532Z,3.33
2023-08-24T22:41:05.148Z,3.17
2023-08-24T22:43:32.944Z,3.40
2023-08-24T22:46:00.748Z,3.70
2023-08-24T22:48:28.921Z,3.00
2023-08-24T22:50:56.630Z,3.53
2023-08-24T22:53:24.412Z,3.58
2023-08-24T22:55:53.516Z,3.25
2023-08-24T22:58:21.168Z,3.38
2023-08-24T23:00:48.826Z,3.67
2023-08-24T23:03:16.489Z,3.92
2023-08-24T23:05:44.418Z,4.35
2023-08-24T23:08:12.090Z,3.70
2023-08-24T23:10:39.789Z,3.65
2023-08-24T23:13:08.834Z,4.10
2023-08-24T23:15:36.649Z,4.28
2023-08-24T23:18:04.898Z,3.67
2023-08-24T23:20:32.911Z,3.85
2023-08-24T23:23:00.648Z,3.50
2023-08-24T23:25:28.313Z,3.50
2023-08-24T23:27:56.636Z,3.80
2023-08-24T23:30:26.537Z,3.67
2023-08-24T23:32:54.316Z,3.38
2023-08-24T23:35:22.001Z,3.70
2023-08-24T23:37:51.540Z,3.58
2023-08-24T23:40:19.938Z,3.40
2023-08-24T23:42:47.599Z,4.53
2023-08-24T23:45:15.332Z,3.88
2023-08-24T23:47:44.335Z,3.80
2023-08-24T23:50:12.028Z,3.85
2023-08-24T23:52:39.699Z,3.70
2023-08-24T23:55:08.654Z,3.65
2023-08-24T23:57:36.337Z,3.70
